Aline, Georgia
Current Conditions -  °F | °C
As of 5:35 PM on Monday 24 Nov 2014 (Local Time) from KVDI Reporting Station
Broken Clouds Broken Clouds  
Wind Chill: 64°   Ceiling: 11000
Heat Index: 64°   Visibility: 10mi
Dew Point: 64°   Wind: 3mph
Humidity: 100%   Direction: 190°S
Pressure: 29.87"   Gusts: NA
Location:  32.2572°N, 82.1288°W
Report Text: KVDI 242235Z AUTO 19003KT 10SM SCT005 BKN110 18/18 A2987 RMK AO2 LTG DSNT E AND S
Loading
Personal Weather Stations






























Interactive Weather Map New forecast layout! Learn more

10-Day Weather Forecast

Advertisements
Track Severe Weather on mobile